Time;durP1;ratioP1;P1;durP2;ratioP2;P2;SDS_P1;SDS_P2;PMS_P1;PMS_P2;Temp;Humidity;BMP_temperature;BMP_pressure;BME280_temperature;BME280_humidity;BME280_pressure;Samples;Min_cycle;Max_cycle;Signal;HPM_P1;HPM_P2
2022/11/24 00:04:54;;;;;;;12.17;4.57;;;;;;;-0.43;100.00;95647.84;10412995;28;20212;-77
2022/11/24 00:09:54;;;;;;;8.43;3.80;;;;;;;-0.42;100.00;95648.66;10395483;28;20242;-79
2022/11/24 00:14:54;;;;;;;9.03;4.53;;;;;;;-0.48;100.00;95654.25;10395241;28;20192;-79
2022/11/24 00:19:55;;;;;;;14.30;4.87;;;;;;;-0.54;100.00;95655.53;10412341;28;20197;-79
2022/11/24 00:24:55;;;;;;;9.27;4.53;;;;;;;-0.63;100.00;95654.47;10411987;28;20216;-79
2022/11/24 00:29:58;;;;;;;8.30;3.83;;;;;;;-0.58;100.00;95659.28;10412179;28;20223;-79
2022/11/24 00:34:58;;;;;;;6.33;3.13;;;;;;;-0.49;100.00;95661.16;10411343;28;20196;-79
2022/11/24 00:39:59;;;;;;;7.73;3.80;;;;;;;-0.58;100.00;95657.53;10411073;28;20222;-79
2022/11/24 00:44:59;;;;;;;10.53;4.00;;;;;;;-0.61;100.00;95665.47;10411283;28;20235;-79
2022/11/24 00:49:59;;;;;;;7.03;3.63;;;;;;;-0.70;100.00;95667.88;10410647;28;20214;-79
2022/11/24 00:55:00;;;;;;;6.97;3.27;;;;;;;-0.64;100.00;95678.56;10410973;28;20661;-79
2022/11/24 01:00:00;;;;;;;8.03;3.70;;;;;;;-0.74;100.00;95673.25;10409125;28;20553;-79
2022/11/24 01:05:02;;;;;;;4.87;2.90;;;;;;;-0.76;100.00;95671.75;10410227;28;20277;-79
2022/11/24 01:10:02;;;;;;;8.10;3.40;;;;;;;-0.86;100.00;95679.28;10408846;28;20649;-79
2022/11/24 01:15:03;;;;;;;5.43;3.03;;;;;;;-0.82;100.00;95685.03;10409642;28;20192;-79
2022/11/24 01:20:04;;;;;;;7.07;3.40;;;;;;;-0.97;100.00;95694.69;10409875;28;20193;-79
2022/11/24 01:25:05;;;;;;;5.70;3.27;;;;;;;-0.92;100.00;95697.72;10409821;28;20196;-79
2022/11/24 01:30:06;;;;;;;7.60;2.90;;;;;;;-0.90;100.00;95699.25;10409387;28;20235;-79
2022/11/24 01:35:07;;;;;;;6.20;3.17;;;;;;;-0.91;100.00;95704.53;10409029;28;20657;-79
2022/11/24 01:40:08;;;;;;;8.67;3.10;;;;;;;-0.89;100.00;95702.66;10407566;28;20212;-79
2022/11/24 01:45:34;;;;;;;3.00;1.80;;;;;;;-0.83;100.00;95709.91;10407146;28;20192;-79
2022/11/24 01:50:35;;;;;;;7.43;3.00;;;;;;;-0.84;100.00;95707.47;10403940;28;20199;-79
2022/11/24 01:55:36;;;;;;;5.83;2.57;;;;;;;-0.68;100.00;95713.13;10406179;28;20668;-79
2022/11/24 02:00:37;;;;;;;9.13;2.97;;;;;;;-0.56;100.00;95716.56;10407865;28;20244;-79
2022/11/24 02:05:45;;;;;;;5.30;2.40;;;;;;;-0.46;100.00;95720.09;10391062;28;20661;-79
2022/11/24 02:10:46;;;;;;;3.27;1.90;;;;;;;-0.39;100.00;95725.63;10390450;28;20200;-79
2022/11/24 02:15:47;;;;;;;5.13;2.17;;;;;;;-0.42;100.00;95724.06;10407225;28;20327;-79
2022/11/24 02:20:47;;;;;;;6.90;2.53;;;;;;;-0.45;100.00;95729.44;10413592;28;20220;-79
2022/11/24 02:25:56;;;;;;;2.60;2.00;;;;;;;-0.41;100.00;95722.34;10416156;28;20216;-79
2022/11/24 02:30:58;;;;;;;4.97;2.23;;;;;;;-0.38;100.00;95716.97;10416271;28;20232;-79
2022/11/24 02:35:59;;;;;;;7.80;2.40;;;;;;;-0.28;100.00;95711.94;10415844;28;20198;-79
2022/11/24 02:41:03;;;;;;;4.17;2.47;;;;;;;-0.31;100.00;95715.56;10415994;28;20586;-79
2022/11/24 02:46:03;;;;;;;6.33;2.63;;;;;;;-0.38;100.00;95725.50;10415484;28;20241;-79
2022/11/24 02:51:04;;;;;;;4.30;2.03;;;;;;;-0.27;100.00;95722.13;10415490;28;20995;-79
2022/11/24 02:56:05;;;;;;;4.17;2.43;;;;;;;-0.26;100.00;95738.38;10415700;28;20600;-79
2022/11/24 03:01:05;;;;;;;7.13;2.47;;;;;;;-0.12;100.00;95729.63;10414892;28;20220;-79
2022/11/24 03:06:05;;;;;;;4.87;2.50;;;;;;;-0.18;100.00;95736.06;10415003;28;20184;-79
2022/11/24 03:11:06;;;;;;;3.97;2.43;;;;;;;-0.31;100.00;95735.34;10414360;28;20227;-79
2022/11/24 03:16:08;;;;;;;9.83;3.20;;;;;;;-0.24;100.00;95742.50;10414255;28;20213;-79
2022/11/24 03:21:08;;;;;;;6.07;2.93;;;;;;;-0.24;100.00;95744.25;10414345;28;20718;-79
2022/11/24 03:26:11;;;;;;;4.40;2.57;;;;;;;-0.27;100.00;95737.56;10414215;28;20206;-79
2022/11/24 03:31:12;;;;;;;6.33;3.20;;;;;;;-0.20;100.00;95749.06;10411186;28;20701;-79
2022/11/24 03:36:12;;;;;;;7.10;4.10;;;;;;;-0.05;100.00;95747.06;10413357;28;20221;-79
2022/11/24 03:41:13;;;;;;;5.63;3.37;;;;;;;-0.06;100.00;95749.75;10413486;28;20225;-79
2022/11/24 03:46:13;;;;;;;5.67;3.77;;;;;;;0.19;100.00;95763.38;10413329;28;20193;-79
2022/11/24 03:51:14;;;;;;;7.97;3.93;;;;;;;0.20;100.00;95762.44;10412998;28;20191;-79
2022/11/24 03:56:15;;;;;;;11.23;5.63;;;;;;;0.46;100.00;95758.72;10412762;28;20201;-79
2022/11/24 04:01:15;;;;;;;8.93;3.77;;;;;;;0.42;100.00;95764.22;10412402;28;20582;-79
2022/11/24 04:06:16;;;;;;;8.43;4.60;;;;;;;0.44;100.00;95760.56;10410275;28;20258;-79
2022/11/24 04:16:36;;;;;;;7.80;5.10;;;;;;;0.60;100.00;95767.94;10387098;28;20212;-79
2022/11/24 04:21:37;;;;;;;9.33;4.83;;;;;;;0.56;100.00;95770.88;10408745;28;20216;-79
2022/11/24 04:26:38;;;;;;;11.03;5.03;;;;;;;0.60;100.00;95786.00;10408316;28;20196;-79
2022/11/24 04:31:38;;;;;;;12.60;5.50;;;;;;;0.62;100.00;95789.25;10407674;28;20301;-79
2022/11/24 04:36:39;;;;;;;8.63;5.77;;;;;;;0.69;100.00;95793.00;10407412;28;20584;-79
2022/11/24 04:41:40;;;;;;;9.67;5.33;;;;;;;0.70;100.00;95799.81;10407425;28;20703;-77
2022/11/24 04:46:40;;;;;;;8.83;5.20;;;;;;;0.74;100.00;95804.75;10407859;28;20188;-77
2022/11/24 04:51:40;;;;;;;8.10;5.50;;;;;;;0.71;100.00;95816.09;10407444;28;20184;-77
2022/11/24 04:56:41;;;;;;;9.87;6.33;;;;;;;0.57;100.00;95824.88;10407056;28;20192;-77
2022/11/24 05:01:42;;;;;;;28.20;14.03;;;;;;;0.93;100.00;95825.56;10407589;28;20708;-77
2022/11/24 05:06:43;;;;;;;11.50;7.27;;;;;;;1.04;100.00;95835.88;10410744;28;20211;-77
2022/11/24 05:11:43;;;;;;;26.30;15.47;;;;;;;0.91;100.00;95837.75;10409889;28;20192;-77
2022/11/24 05:16:44;;;;;;;12.63;7.07;;;;;;;1.16;100.00;95851.31;10401337;28;20203;-77
2022/11/24 05:21:44;;;;;;;11.20;8.37;;;;;;;1.40;100.00;95851.97;10410091;28;20270;-78
2022/11/24 05:26:44;;;;;;;9.50;6.57;;;;;;;1.44;100.00;95857.75;10409832;28;20257;-78
2022/11/24 05:31:45;;;;;;;10.53;6.70;;;;;;;1.46;100.00;95860.19;10409662;28;20325;-78
2022/11/24 05:36:51;;;;;;;9.37;5.90;;;;;;;1.67;100.00;95860.22;10408370;28;20208;-78
2022/11/24 05:41:52;;;;;;;9.13;5.97;;;;;;;1.90;100.00;95854.06;10409309;28;20216;-78
2022/11/24 05:46:52;;;;;;;9.97;6.77;;;;;;;2.17;100.00;95864.84;10409077;28;20199;-78
2022/11/24 05:51:52;;;;;;;9.00;5.93;;;;;;;2.31;100.00;95864.53;10409616;28;20279;-78
2022/11/24 05:56:53;;;;;;;10.13;7.13;;;;;;;2.47;100.00;95875.25;10417847;28;20649;-77
2022/11/24 06:01:53;;;;;;;8.53;6.10;;;;;;;2.48;100.00;95883.81;10416390;28;20224;-76
2022/11/24 06:06:53;;;;;;;7.77;4.60;;;;;;;2.61;100.00;95893.97;10417654;28;20285;-76
2022/11/24 06:11:55;;;;;;;7.13;4.73;;;;;;;2.59;100.00;95896.69;10416321;28;20185;-76
2022/11/24 06:16:55;;;;;;;6.47;4.97;;;;;;;2.54;100.00;95903.97;10417359;28;20227;-76
2022/11/24 06:21:56;;;;;;;8.13;4.87;;;;;;;2.61;100.00;95909.47;10417666;28;20312;-77
2022/11/24 06:26:56;;;;;;;9.30;5.00;;;;;;;2.59;100.00;95924.28;10417733;28;20192;-78
2022/11/24 06:31:57;;;;;;;9.03;4.93;;;;;;;2.60;100.00;95920.75;10417770;28;20236;-77
2022/11/24 06:36:57;;;;;;;6.10;4.53;;;;;;;2.61;100.00;95932.75;10418939;28;20223;-77
2022/11/24 06:41:57;;;;;;;5.30;4.30;;;;;;;2.58;100.00;95933.00;10417196;28;20227;-78
2022/11/24 06:46:58;;;;;;;6.97;4.67;;;;;;;2.55;100.00;95947.00;10417123;28;20191;-76
2022/11/24 06:51:58;;;;;;;6.83;4.53;;;;;;;2.50;100.00;95952.53;10436558;28;20192;-77
2022/11/24 06:56:59;;;;;;;5.07;4.00;;;;;;;2.58;100.00;95953.69;10457761;28;20233;-78
2022/11/24 07:01:59;;;;;;;6.97;4.63;;;;;;;2.53;100.00;95960.97;10457815;28;20227;-78
2022/11/24 07:06:59;;;;;;;6.20;4.87;;;;;;;2.60;100.00;95972.47;10455253;28;20930;-77
2022/11/24 07:12:01;;;;;;;6.70;5.17;;;;;;;2.71;100.00;95969.84;10417442;28;20709;-77
2022/11/24 07:17:03;;;;;;;3.77;3.20;;;;;;;2.84;100.00;95974.81;10416434;28;20197;-76
2022/11/24 07:22:03;;;;;;;4.57;3.67;;;;;;;2.85;100.00;95982.44;10415313;28;20315;-76
2022/11/24 07:27:04;;;;;;;5.03;3.30;;;;;;;2.88;100.00;95991.72;10410086;28;20675;-77
2022/11/24 07:32:04;;;;;;;6.37;3.10;;;;;;;2.93;100.00;95989.56;10414768;28;20358;-77
2022/11/24 07:37:05;;;;;;;4.60;3.40;;;;;;;2.91;100.00;96011.34;10415316;28;20211;-76
2022/11/24 07:42:07;;;;;;;6.30;3.30;;;;;;;2.89;100.00;96019.22;10417391;28;20217;-76
2022/11/24 07:47:07;;;;;;;5.23;3.33;;;;;;;2.79;100.00;96019.16;10413824;28;20191;-77
2022/11/24 07:52:08;;;;;;;5.60;3.80;;;;;;;2.87;100.00;96028.06;10414799;28;20641;-77
2022/11/24 07:57:08;;;;;;;9.17;3.87;;;;;;;2.95;100.00;96031.66;10415154;28;20258;-76
2022/11/24 08:02:12;;;;;;;8.67;3.90;;;;;;;2.92;100.00;96028.50;10410792;28;20286;-76
2022/11/24 08:07:12;;;;;;;7.83;4.03;;;;;;;2.98;100.00;96025.41;10395031;28;20204;-77
2022/11/24 08:12:13;;;;;;;4.83;3.60;;;;;;;2.97;100.00;96041.88;10414085;28;20714;-75
2022/11/24 08:17:13;;;;;;;10.60;4.03;;;;;;;3.02;100.00;96043.16;10396730;28;20704;-76
2022/11/24 08:22:13;;;;;;;5.70;4.37;;;;;;;3.06;100.00;96043.69;10416280;28;20227;-77
2022/11/24 08:27:14;;;;;;;5.73;4.57;;;;;;;3.29;100.00;96039.22;10433732;28;20244;-77
2022/11/24 08:32:15;;;;;;;10.40;5.17;;;;;;;3.34;100.00;96054.38;10454243;28;20778;-77
2022/11/24 08:37:15;;;;;;;16.20;5.07;;;;;;;3.48;100.00;96050.63;10432677;28;20324;-76
2022/11/24 08:42:16;;;;;;;16.60;6.37;;;;;;;3.50;100.00;96049.53;10451958;28;20220;-77
2022/11/24 08:47:16;;;;;;;13.93;6.30;;;;;;;3.56;100.00;96051.59;10408805;28;20242;-77
2022/11/24 08:52:16;;;;;;;18.70;5.83;;;;;;;3.67;100.00;96055.88;10409604;28;20185;-77
2022/11/24 08:57:18;;;;;;;17.00;5.70;;;;;;;3.71;100.00;96054.69;10410264;28;20196;-76
2022/11/24 09:02:18;;;;;;;19.50;5.90;;;;;;;3.78;100.00;96052.38;10403836;28;20228;-77
2022/11/24 09:07:18;;;;;;;14.40;5.57;;;;;;;3.85;100.00;96050.09;10398890;28;20192;-77
2022/11/24 09:12:19;;;;;;;23.90;5.60;;;;;;;3.94;100.00;96057.09;10409164;28;20192;-78
2022/11/24 09:17:19;;;;;;;15.07;5.97;;;;;;;4.04;100.00;96059.69;10406933;28;20196;-76
2022/11/24 09:22:20;;;;;;;12.23;4.60;;;;;;;4.21;100.00;96053.06;10407651;28;20221;-76
2022/11/24 09:27:20;;;;;;;14.50;4.90;;;;;;;4.38;100.00;96054.16;10407776;28;20203;-76
2022/11/24 09:32:21;;;;;;;13.53;4.60;;;;;;;4.43;100.00;96052.81;10409140;28;20232;-76
2022/11/24 09:37:21;;;;;;;18.53;4.57;;;;;;;4.49;100.00;96048.88;10408467;28;20219;-76
2022/11/24 09:42:35;;;;;;;14.07;4.17;;;;;;;4.57;100.00;96050.78;10407171;28;20973;-76
2022/11/24 09:48:01;;;;;;;11.10;3.53;;;;;;;4.76;100.00;96050.81;10407079;28;20199;-76
2022/11/24 09:53:09;;;;;;;10.63;4.00;;;;;;;4.76;100.00;96049.97;10404800;28;20254;-76
2022/11/24 09:58:31;;;;;;;7.87;3.80;;;;;;;4.77;100.00;96052.44;10390626;28;20185;-77
2022/11/24 10:03:43;;;;;;;8.20;3.70;;;;;;;4.87;100.00;96054.19;10407809;28;20908;-77
2022/11/24 10:08:59;;;;;;;16.53;3.43;;;;;;;4.79;100.00;96047.09;10384379;28;20204;-78
2022/11/24 10:14:07;;;;;;;16.80;4.53;;;;;;;4.83;100.00;96054.47;10406036;28;20642;-77
2022/11/24 10:19:28;;;;;;;11.23;3.30;;;;;;;5.00;100.00;96063.34;10407398;28;20199;-78
2022/11/24 10:24:57;;;;;;;10.67;3.57;;;;;;;5.17;100.00;96059.22;10406732;28;20220;-76
2022/11/24 10:29:59;;;;;;;14.37;3.03;;;;;;;5.13;100.00;96052.69;10406261;28;20596;-76
2022/11/24 10:35:14;;;;;;;16.17;3.33;;;;;;;5.30;100.00;96060.72;10407582;28;20188;-77
2022/11/24 10:40:24;;;;;;;10.13;3.70;;;;;;;5.15;100.00;96062.94;10410437;28;20640;-76
2022/11/24 10:45:26;;;;;;;11.43;3.87;;;;;;;5.15;100.00;96063.75;10381154;28;20205;-74
2022/11/24 10:50:30;;;;;;;15.77;4.23;;;;;;;5.23;100.00;96064.84;10380401;28;20287;-75
2022/11/24 10:55:55;;;;;;;18.30;3.43;;;;;;;5.13;100.00;96060.47;10395596;28;20267;-77
2022/11/24 11:00:59;;;;;;;16.67;3.97;;;;;;;5.26;100.00;96062.78;10414041;28;20221;-75
2022/11/24 11:06:11;;;;;;;25.10;5.03;;;;;;;5.29;100.00;96059.09;10395767;28;20247;-75
2022/11/24 11:11:17;;;;;;;14.30;4.67;;;;;;;5.01;100.00;96066.78;10393910;28;20250;-76
2022/11/24 11:16:41;;;;;;;19.23;5.87;;;;;;;5.07;100.00;96074.00;10410655;28;20250;-76
2022/11/24 11:21:41;;;;;;;20.40;6.63;;;;;;;5.05;100.00;96072.50;10413379;28;20625;-77
2022/11/24 11:26:42;;;;;;;15.10;4.63;;;;;;;5.32;100.00;96074.38;10408475;28;20262;-76
2022/11/24 11:31:55;;;;;;;9.23;3.67;;;;;;;5.31;100.00;96076.19;10412732;28;20247;-76
2022/11/24 11:36:56;;;;;;;22.77;4.40;;;;;;;5.66;100.00;96068.69;10412995;28;20244;-76
2022/11/24 11:42:21;;;;;;;7.17;3.00;;;;;;;5.71;100.00;96079.47;10411681;28;20307;-75
2022/11/24 11:47:26;;;;;;;13.60;4.20;;;;;;;5.80;100.00;96075.22;10411184;28;20196;-77
2022/11/24 11:53:09;;;;;;;8.67;3.90;;;;;;;5.95;100.00;96081.56;10411451;28;21027;-75
2022/11/24 11:58:47;;;;;;;15.33;4.37;;;;;;;5.85;100.00;96088.59;10403148;28;20556;-77
2022/11/24 12:04:06;;;;;;;12.37;4.30;;;;;;;5.75;100.00;96085.22;10394175;28;20597;-76
2022/11/24 12:09:26;;;;;;;12.67;4.13;;;;;;;5.98;100.00;96086.53;10411868;28;20211;-76
2022/11/24 12:14:51;;;;;;;13.23;4.13;;;;;;;5.90;100.00;96086.41;10410330;28;20195;-77
2022/11/24 12:20:16;;;;;;;15.10;4.40;;;;;;;5.89;100.00;96095.97;10403463;28;20208;-77
2022/11/24 12:25:25;;;;;;;14.13;4.17;;;;;;;5.86;100.00;96090.22;10403820;28;20537;-76
2022/11/24 12:30:55;;;;;;;11.17;3.80;;;;;;;5.84;100.00;96094.78;10389904;28;20251;-74
2022/11/24 12:36:35;;;;;;;11.80;3.97;;;;;;;5.80;100.00;96099.41;10437758;28;20200;-74
2022/11/24 12:42:05;;;;;;;16.50;4.80;;;;;;;5.94;100.00;96105.97;10431860;28;20219;-75
2022/11/24 12:47:17;;;;;;;14.00;4.80;;;;;;;6.06;100.00;96098.81;10430216;28;20193;-73
2022/11/24 12:52:52;;;;;;;12.47;4.03;;;;;;;6.10;100.00;96101.97;10405146;28;20559;-75
2022/11/24 12:58:14;;;;;;;12.37;4.80;;;;;;;6.04;100.00;96108.53;10376452;28;20216;-76
2022/11/24 13:03:36;;;;;;;19.50;4.80;;;;;;;5.91;100.00;96111.41;10407940;28;20644;-75
2022/11/24 13:08:37;;;;;;;19.93;5.77;;;;;;;5.82;100.00;96107.91;10409051;28;20211;-74
2022/11/24 13:13:59;;;;;;;18.20;5.13;;;;;;;5.84;100.00;96123.34;10408841;28;20195;-75
2022/11/24 13:19:20;;;;;;;15.73;5.53;;;;;;;5.79;100.00;96128.16;10409230;28;20196;-75
2022/11/24 13:24:23;;;;;;;16.37;5.93;;;;;;;5.60;100.00;96132.44;10406932;28;20224;-75
2022/11/24 13:29:26;;;;;;;25.17;8.53;;;;;;;5.63;100.00;96144.34;10408269;28;20192;-76
2022/11/24 13:35:10;;;;;;;20.43;6.27;;;;;;;5.53;100.00;96149.56;10407248;28;20279;-76
2022/11/24 13:40:10;;;;;;;20.47;6.63;;;;;;;5.66;100.00;96152.66;10403733;28;20279;-75
2022/11/24 13:45:39;;;;;;;20.80;6.72;;;;;;;5.63;100.00;96160.72;10407231;28;20287;-76
2022/11/24 13:50:48;;;;;;;13.73;5.53;;;;;;;5.67;100.00;96159.50;10405184;28;20281;-74
2022/11/24 13:55:57;;;;;;;20.43;6.33;;;;;;;5.81;100.00;96157.44;10417777;28;20271;-76
2022/11/24 14:01:13;;;;;;;14.50;6.17;;;;;;;5.85;100.00;96161.38;10404569;28;20212;-75
2022/11/24 14:06:16;;;;;;;19.67;6.10;;;;;;;5.81;100.00;96171.25;10387136;28;20677;-75
2022/11/24 14:11:17;;;;;;;22.43;8.07;;;;;;;5.65;100.00;96173.59;10388785;28;20235;-75
2022/11/24 14:16:20;;;;;;;18.17;6.67;;;;;;;5.72;100.00;96183.28;10411951;28;20269;-75
2022/11/24 14:21:29;;;;;;;21.50;8.37;;;;;;;5.75;100.00;96186.59;10396078;28;20208;-75
2022/11/24 14:26:32;;;;;;;172.13;64.80;;;;;;;5.91;100.00;96184.19;10395498;28;20196;-76
2022/11/24 14:31:33;;;;;;;33.47;12.30;;;;;;;5.87;100.00;96186.28;10395476;28;20232;-75
2022/11/24 14:36:33;;;;;;;27.63;8.60;;;;;;;5.85;100.00;96192.56;10412967;28;20216;-76
2022/11/24 14:41:33;;;;;;;23.37;6.57;;;;;;;5.82;100.00;96193.69;10399032;28;20693;-76
2022/11/24 14:46:35;;;;;;;159.67;44.57;;;;;;;5.72;100.00;96214.47;10405107;28;20201;-76
2022/11/24 14:51:36;;;;;;;49.13;15.53;;;;;;;5.53;100.00;96222.31;10412772;28;20242;-77
2022/11/24 14:56:38;;;;;;;50.37;18.13;;;;;;;5.56;100.00;96236.78;10395563;28;20653;-76
2022/11/24 15:01:38;;;;;;;30.33;12.27;;;;;;;5.44;100.00;96239.53;10412469;28;20305;-77
2022/11/24 15:06:40;;;;;;;24.80;10.10;;;;;;;5.50;100.00;96246.75;10412640;28;20252;-77
2022/11/24 15:11:40;;;;;;;22.60;9.00;;;;;;;5.57;100.00;96252.22;10394632;28;20200;-76
2022/11/24 15:16:41;;;;;;;42.13;16.30;;;;;;;5.39;100.00;96261.66;10413067;28;20565;-76
2022/11/24 15:21:41;;;;;;;109.80;56.90;;;;;;;5.28;100.00;96267.78;10397063;28;20208;-76
2022/11/24 15:26:42;;;;;;;35.07;18.50;;;;;;;5.36;100.00;96271.38;10416746;28;20192;-75
2022/11/24 15:31:43;;;;;;;35.90;23.27;;;;;;;4.97;100.00;96279.06;10444295;28;20227;-75
2022/11/24 15:36:43;;;;;;;28.37;13.43;;;;;;;4.82;100.00;96286.41;10418146;28;20306;-75
2022/11/24 15:41:43;;;;;;;37.70;12.67;;;;;;;4.73;100.00;96297.59;10410463;28;20266;-75
2022/11/24 15:46:44;;;;;;;27.73;10.43;;;;;;;4.63;100.00;96310.50;10418167;28;20187;-76
2022/11/24 15:51:45;;;;;;;17.33;7.90;;;;;;;4.80;100.00;96311.66;10412872;28;20180;-76
2022/11/24 15:56:46;;;;;;;30.10;11.77;;;;;;;4.72;100.00;96321.88;10412045;28;20200;-76
2022/11/24 16:01:48;;;;;;;22.10;8.77;;;;;;;4.63;100.00;96331.25;10393324;28;20213;-76
2022/11/24 16:06:48;;;;;;;24.93;12.17;;;;;;;4.67;100.00;96338.78;10411467;28;20197;-76
2022/11/24 16:11:49;;;;;;;25.37;10.13;;;;;;;4.72;100.00;96347.00;10393205;28;20188;-76
2022/11/24 16:16:49;;;;;;;46.53;20.23;;;;;;;4.68;100.00;96358.59;10403418;28;20188;-75
2022/11/24 16:21:50;;;;;;;37.83;22.10;;;;;;;4.44;100.00;96357.06;10410229;28;20221;-76
2022/11/24 16:26:50;;;;;;;40.17;20.00;;;;;;;4.41;100.00;96357.31;10411518;28;20247;-76
2022/11/24 16:31:51;;;;;;;52.00;27.87;;;;;;;4.45;100.00;96372.50;10409445;28;20239;-76
2022/11/24 16:36:51;;;;;;;44.63;27.30;;;;;;;4.54;100.00;96376.13;10408899;28;20271;-76
2022/11/24 16:41:51;;;;;;;34.23;19.03;;;;;;;4.38;100.00;96376.56;10408632;28;20214;-75
2022/11/24 16:46:52;;;;;;;57.83;29.17;;;;;;;4.51;100.00;96376.38;10402041;28;20207;-76
2022/11/24 16:51:52;;;;;;;79.93;35.97;;;;;;;4.40;100.00;96377.25;10407613;28;20177;-76
2022/11/24 16:56:54;;;;;;;35.80;19.10;;;;;;;4.49;100.00;96383.47;10409130;28;20192;-76
2022/11/24 17:01:54;;;;;;;36.50;20.00;;;;;;;4.49;100.00;96388.66;10407069;28;20216;-75
2022/11/24 17:06:54;;;;;;;38.50;18.73;;;;;;;4.39;100.00;96396.34;10409944;28;20215;-76
2022/11/24 17:11:55;;;;;;;46.70;20.57;;;;;;;4.18;100.00;96396.34;10409633;28;20208;-76
2022/11/24 17:16:55;;;;;;;46.37;20.37;;;;;;;4.32;100.00;96396.97;10409321;28;20254;-76
2022/11/24 17:21:56;;;;;;;35.93;15.40;;;;;;;4.34;100.00;96400.28;10409247;28;20216;-76
2022/11/24 17:26:56;;;;;;;23.93;14.00;;;;;;;4.33;100.00;96404.63;10409468;28;20692;-76
2022/11/24 17:31:57;;;;;;;45.63;17.43;;;;;;;4.17;100.00;96409.44;10408450;28;20220;-76
2022/11/24 17:36:57;;;;;;;36.30;16.97;;;;;;;4.20;100.00;96406.59;10409354;28;20253;-76
2022/11/24 17:41:58;;;;;;;27.93;14.77;;;;;;;4.17;100.00;96414.63;10408736;28;20221;-76
2022/11/24 17:46:59;;;;;;;30.40;14.33;;;;;;;4.27;100.00;96416.34;10408329;28;20192;-76
2022/11/24 17:52:00;;;;;;;31.90;14.90;;;;;;;4.17;100.00;96417.22;10408549;28;20238;-76
2022/11/24 17:57:00;;;;;;;37.20;18.33;;;;;;;3.95;100.00;96429.31;10408638;28;20258;-76
2022/11/24 18:02:00;;;;;;;33.77;16.20;;;;;;;4.14;100.00;96431.25;10408483;28;20574;-77
2022/11/24 18:07:01;;;;;;;31.33;18.57;;;;;;;4.21;100.00;96431.56;10408529;28;20184;-76
2022/11/24 18:12:01;;;;;;;28.43;14.77;;;;;;;4.27;100.00;96431.06;10408384;28;20196;-76
2022/11/24 18:17:02;;;;;;;32.13;17.57;;;;;;;4.23;100.00;96445.25;10408239;28;20197;-78
2022/11/24 18:22:02;;;;;;;24.03;12.47;;;;;;;4.43;100.00;96447.03;10390046;28;20618;-79
2022/11/24 18:27:02;;;;;;;29.33;15.30;;;;;;;4.18;100.00;96444.78;10406387;28;20223;-78
2022/11/24 18:32:03;;;;;;;20.20;10.03;;;;;;;4.13;100.00;96450.31;10399043;28;20562;-76
2022/11/24 18:37:03;;;;;;;28.83;9.63;;;;;;;4.17;100.00;96446.56;10400169;28;20207;-79
2022/11/24 18:42:04;;;;;;;23.33;9.37;;;;;;;4.08;100.00;96442.09;10392576;28;20212;-77
2022/11/24 18:47:04;;;;;;;22.90;10.47;;;;;;;4.08;100.00;96444.69;10407286;28;20194;-77
2022/11/24 18:52:05;;;;;;;17.20;9.03;;;;;;;4.11;100.00;96447.03;10407781;28;20216;-77
2022/11/24 18:57:05;;;;;;;21.60;7.60;;;;;;;4.01;100.00;96451.31;10407633;28;20547;-77
2022/11/24 19:02:08;;;;;;;17.53;7.73;;;;;;;4.10;100.00;96456.59;10412426;28;20211;-76
2022/11/24 19:07:08;;;;;;;17.43;8.87;;;;;;;4.00;100.00;96460.03;10392344;28;20215;-77
2022/11/24 19:12:09;;;;;;;26.93;12.03;;;;;;;3.85;100.00;96455.13;10440906;28;20647;-77
2022/11/24 19:17:10;;;;;;;21.83;10.93;;;;;;;3.82;100.00;96455.34;10454465;28;20195;-76
2022/11/24 19:22:12;;;;;;;20.03;11.43;;;;;;;3.84;100.00;96465.59;10454586;28;20297;-76
2022/11/24 19:27:13;;;;;;;24.63;13.33;;;;;;;3.84;100.00;96471.59;10454906;28;20203;-77
2022/11/24 19:32:14;;;;;;;37.53;15.90;;;;;;;3.65;100.00;96474.00;10453299;28;20238;-77
2022/11/24 19:37:14;;;;;;;33.13;12.30;;;;;;;3.60;100.00;96486.47;10454425;28;20219;-76
2022/11/24 19:42:15;;;;;;;29.20;13.17;;;;;;;3.44;100.00;96482.47;10453373;28;20223;-76
2022/11/24 19:47:15;;;;;;;27.40;11.37;;;;;;;3.45;100.00;96480.72;10437409;28;20275;-77
2022/11/24 19:52:16;;;;;;;24.77;10.67;;;;;;;3.40;100.00;96481.09;10453823;28;20180;-77
2022/11/24 19:57:16;;;;;;;21.47;10.53;;;;;;;3.54;100.00;96490.38;10453270;28;20198;-77
2022/11/24 20:02:17;;;;;;;28.00;10.50;;;;;;;3.46;100.00;96487.53;10453142;28;20708;-78
2022/11/24 20:07:19;;;;;;;23.63;10.67;;;;;;;3.45;100.00;96496.25;10453286;28;20196;-76
2022/11/24 20:12:19;;;;;;;25.83;10.13;;;;;;;3.31;100.00;96500.72;10419339;28;20195;-77
2022/11/24 20:17:19;;;;;;;16.27;8.27;;;;;;;3.22;100.00;96502.22;10411074;28;20204;-77
2022/11/24 20:22:20;;;;;;;22.10;8.60;;;;;;;3.29;100.00;96509.53;10411482;28;20248;-77
2022/11/24 20:27:20;;;;;;;19.60;7.90;;;;;;;3.46;100.00;96519.44;10410924;28;20193;-77
2022/11/24 20:32:21;;;;;;;20.83;7.87;;;;;;;3.70;100.00;96518.50;10410400;28;20784;-77
2022/11/24 20:37:22;;;;;;;20.03;8.30;;;;;;;4.00;100.00;96524.84;10410984;28;20635;-77
2022/11/24 20:42:22;;;;;;;17.50;7.07;;;;;;;4.04;100.00;96523.63;10409471;28;20228;-77
2022/11/24 20:47:23;;;;;;;17.97;6.63;;;;;;;4.10;100.00;96525.75;10411307;28;20184;-78
2022/11/24 20:52:23;;;;;;;25.87;6.77;;;;;;;4.20;100.00;96524.09;10408990;28;20181;-78
2022/11/24 20:57:24;;;;;;;13.47;6.23;;;;;;;4.22;100.00;96526.56;10409654;28;20215;-77
2022/11/24 21:02:25;;;;;;;13.50;5.70;;;;;;;4.33;100.00;96523.09;10409647;28;20224;-77
2022/11/24 21:07:25;;;;;;;14.10;6.20;;;;;;;4.35;100.00;96514.28;10410086;28;20716;-77
2022/11/24 21:12:25;;;;;;;13.73;5.40;;;;;;;4.45;100.00;96512.56;10410001;28;20181;-76
2022/11/24 21:17:26;;;;;;;12.77;4.80;;;;;;;4.37;100.00;96514.16;10410542;28;20188;-76
2022/11/24 21:22:26;;;;;;;10.60;4.33;;;;;;;4.44;100.00;96517.88;10410024;28;20216;-77
2022/11/24 21:27:27;;;;;;;10.17;4.50;;;;;;;4.41;100.00;96518.13;10410202;28;20534;-77
2022/11/24 21:32:28;;;;;;;10.37;4.50;;;;;;;4.36;100.00;96509.91;10409802;28;20240;-77
2022/11/24 21:37:28;;;;;;;13.77;4.70;;;;;;;4.38;100.00;96510.59;10409688;28;20212;-74
2022/11/24 21:42:29;;;;;;;9.70;4.27;;;;;;;4.38;100.00;96508.00;10409389;28;20283;-76
2022/11/24 21:47:29;;;;;;;7.33;4.20;;;;;;;4.28;100.00;96508.72;10410083;28;20716;-77
2022/11/24 21:52:30;;;;;;;11.07;4.80;;;;;;;4.08;100.00;96514.69;10409111;28;20200;-76
2022/11/24 21:57:30;;;;;;;10.10;3.67;;;;;;;4.11;100.00;96515.25;10409490;28;20251;-76
2022/11/24 22:02:30;;;;;;;13.93;4.20;;;;;;;3.95;100.00;96524.38;10408616;28;20219;-76
2022/11/24 22:07:31;;;;;;;10.57;3.70;;;;;;;3.80;100.00;96527.22;10408536;28;20318;-76
2022/11/24 22:12:31;;;;;;;15.33;4.47;;;;;;;3.55;100.00;96520.50;10408635;28;20671;-76
2022/11/24 22:17:32;;;;;;;17.83;5.83;;;;;;;3.42;100.00;96524.97;10408712;28;20196;-76
2022/11/24 22:22:32;;;;;;;35.17;8.00;;;;;;;3.19;100.00;96522.38;10405972;28;20224;-76
2022/11/24 22:27:33;;;;;;;18.70;6.20;;;;;;;2.98;100.00;96535.13;10408719;28;20192;-77
2022/11/24 22:32:33;;;;;;;34.00;9.07;;;;;;;2.76;100.00;96534.13;10408196;28;20220;-77
2022/11/24 22:37:34;;;;;;;21.80;8.00;;;;;;;2.67;100.00;96540.78;10414439;28;20223;-76
2022/11/24 22:42:34;;;;;;;19.53;7.90;;;;;;;2.50;100.00;96554.94;10416074;28;20420;-76
2022/11/24 22:47:34;;;;;;;10.03;4.93;;;;;;;2.48;100.00;96556.81;10416177;28;20192;-76
2022/11/24 22:52:36;;;;;;;22.00;7.93;;;;;;;2.26;100.00;96554.13;10415743;28;20188;-77
2022/11/24 22:57:36;;;;;;;10.57;5.50;;;;;;;2.43;100.00;96565.84;10415924;28;20204;-77
2022/11/24 23:02:37;;;;;;;10.40;4.97;;;;;;;2.58;100.00;96574.25;10415300;28;20711;-76
2022/11/24 23:07:37;;;;;;;10.77;4.90;;;;;;;2.61;100.00;96568.88;10415623;28;20684;-76
2022/11/24 23:12:37;;;;;;;7.97;4.83;;;;;;;2.66;100.00;96569.34;10415426;28;20204;-76
2022/11/24 23:17:38;;;;;;;7.80;5.13;;;;;;;2.56;100.00;96574.38;10414983;28;20238;-76
2022/11/24 23:22:38;;;;;;;10.17;5.03;;;;;;;2.24;100.00;96572.31;10414382;28;20218;-76